Pedhoulas Trader — C4JM2 — position and weather

sailwx.info

Track history (hours):
 
Tides and Currents Weather Stations Pressure Air Temp Water Temp Dewpoint Dewpoint Depression Visibility Wind Speed Wind Dir Waves Ship Positions

Pedhoulas Trader

Last reported at 2016-Aug-19 20:28 UTC. Time now 2016-Sep-26 22:29 UTC.
Position N 25°42' W 079°31'.
Warning: this ship's position is 38 days out of date.

Length 229 m; draft 7.6 m.

Type: Cargo ship. MMSI: 210073000.

Date/timePositionNaut miles runAvg speedWind from/ knotsBaromVisibWave heightAir tempDewpointWater temp
2016-Aug-19 20:28N 25°42' W 079°31'910.2
2016-Aug-19 19:33N 25°51' W 079°28'1010.4
2016-Aug-19 18:33N 26°01' W 079°25'1110.6
2016-Aug-19 17:33N 26°11' W 079°22'4811.7
2016-Aug-19 13:29N 26°11' W 078°29'  
2016-Aug-11 12:33N 36°59' W 034°31'10012.5
2016-Aug-11 04:33N 37°06' W 032°26'5312.0
2016-Aug-11 00:08N 37°15' W 031°20'1212.1
2016-Aug-10 23:08N 37°17' W 031°05'1212.1
2016-Aug-10 22:09N 37°19' W 030°50'812.3
2016-Aug-10 21:32N 37°20' W 030°41'1212.5
2016-Aug-10 20:34N 37°23' W 030°26'1412.5
2016-Aug-10 19:26N 37°25' W 030°09'1413.0
2016-Aug-10 18:21N 37°26' W 029°51'1012.9
2016-Aug-10 17:33N 37°26' W 029°38'1312.9
2016-Aug-10 16:33N 37°27' W 029°22'1312.7
2016-Aug-10 15:33N 37°27' W 029°06'1313.1
2016-Aug-10 14:33N 37°27' W 028°49'1313.0
2016-Aug-10 13:33N 37°27' W 028°33'1312.7
2016-Aug-10 12:33N 37°28' W 028°17'1312.9
2016-Aug-10 11:34N 37°28' W 028°01'1212.4
2016-Aug-10 10:33N 37°28' W 027°45'1212.1
2016-Aug-10 09:33N 37°28' W 027°30'1212.2
2016-Aug-10 08:33N 37°28' W 027°15'1212.3
2016-Aug-10 07:33N 37°29' W 026°59'1212.5
2016-Aug-10 06:33N 37°29' W 026°43'1212.0
2016-Aug-10 05:33N 37°29' W 026°28'1211.9
2016-Aug-10 04:33N 37°29' W 026°13'1211.9
2016-Aug-10 03:33N 37°29' W 025°58'1212.2
2016-Aug-10 02:34N 37°30' W 025°43'1212.3
2016-Aug-10 01:33N 37°30' W 025°27'1212.2
2016-Aug-10 00:33N 37°30' W 025°12'1212.3
2016-Aug-09 23:33N 37°30' W 024°56'1312.5
2016-Aug-09 22:33N 37°29' W 024°41'1212.5
2016-Aug-09 21:33N 37°29' W 024°25'1212.4
2016-Aug-09 20:33N 37°29' W 024°09'  
Track history (hours):
 
Tides and Currents Weather Stations Pressure Air Temp Water Temp Dewpoint Dewpoint Depression Visibility Wind Speed Wind Dir Waves Ship Positions

Pedhoulas Trader

Last reported at 2016-Aug-19 20:28 UTC. Time now 2016-Sep-26 22:29 UTC.
Position N 25°42' W 079°31'.
Warning: this ship's position is 38 days out of date.

Length 229 m; draft 7.6 m.

Type: Cargo ship. MMSI: 210073000.

Date/timePositionNaut miles runAvg speedWind from/ knotsBaromVisibWave heightAir tempDewpointWater temp
2016-Aug-19 20:28N 25°42' W 079°31'910.2
2016-Aug-19 19:33N 25°51' W 079°28'1010.4
2016-Aug-19 18:33N 26°01' W 079°25'1110.6
2016-Aug-19 17:33N 26°11' W 079°22'4811.7
2016-Aug-19 13:29N 26°11' W 078°29'  
2016-Aug-11 12:33N 36°59' W 034°31'10012.5
2016-Aug-11 04:33N 37°06' W 032°26'5312.0
2016-Aug-11 00:08N 37°15' W 031°20'1212.1
2016-Aug-10 23:08N 37°17' W 031°05'1212.1
2016-Aug-10 22:09N 37°19' W 030°50'812.3
2016-Aug-10 21:32N 37°20' W 030°41'1212.5
2016-Aug-10 20:34N 37°23' W 030°26'1412.5
2016-Aug-10 19:26N 37°25' W 030°09'1413.0
2016-Aug-10 18:21N 37°26' W 029°51'1012.9
2016-Aug-10 17:33N 37°26' W 029°38'1312.9
2016-Aug-10 16:33N 37°27' W 029°22'1312.7
2016-Aug-10 15:33N 37°27' W 029°06'1313.1
2016-Aug-10 14:33N 37°27' W 028°49'1313.0
2016-Aug-10 13:33N 37°27' W 028°33'1312.7
2016-Aug-10 12:33N 37°28' W 028°17'1312.9
2016-Aug-10 11:34N 37°28' W 028°01'1212.4
2016-Aug-10 10:33N 37°28' W 027°45'1212.1
2016-Aug-10 09:33N 37°28' W 027°30'1212.2
2016-Aug-10 08:33N 37°28' W 027°15'1212.3
2016-Aug-10 07:33N 37°29' W 026°59'1212.5
2016-Aug-10 06:33N 37°29' W 026°43'1212.0
2016-Aug-10 05:33N 37°29' W 026°28'1211.9
2016-Aug-10 04:33N 37°29' W 026°13'1211.9
2016-Aug-10 03:33N 37°29' W 025°58'1212.2
2016-Aug-10 02:34N 37°30' W 025°43'1212.3
2016-Aug-10 01:33N 37°30' W 025°27'1212.2
2016-Aug-10 00:33N 37°30' W 025°12'1212.3
2016-Aug-09 23:33N 37°30' W 024°56'1312.5
2016-Aug-09 22:33N 37°29' W 024°41'1212.5
2016-Aug-09 21:33N 37°29' W 024°25'1212.4
2016-Aug-09 20:33N 37°29' W 024°09'  

Dump ship's entire track history